createdAt,value
2022-12-26T00:00:30.358Z,8.89
2022-12-26T00:02:57.284Z,8.84
2022-12-26T00:05:24.155Z,8.92
2022-12-26T00:07:51.175Z,8.82
2022-12-26T00:10:18.030Z,8.80
2022-12-26T00:12:44.901Z,8.83
2022-12-26T00:15:11.736Z,8.89
2022-12-26T00:17:38.512Z,8.93
2022-12-26T00:20:05.990Z,8.95
2022-12-26T00:22:32.848Z,8.88
2022-12-26T00:24:59.621Z,8.94
2022-12-26T00:27:26.404Z,8.96
2022-12-26T00:29:53.170Z,9.00
2022-12-26T00:32:20.166Z,8.97
2022-12-26T00:34:47.116Z,9.01
2022-12-26T00:37:13.858Z,9.00
2022-12-26T00:39:40.795Z,8.98
2022-12-26T00:42:07.594Z,8.88
2022-12-26T00:44:34.332Z,8.90
2022-12-26T00:47:01.170Z,8.99
2022-12-26T00:49:28.045Z,8.99
2022-12-26T00:51:54.802Z,8.99
2022-12-26T00:54:21.615Z,8.99
2022-12-26T00:56:48.376Z,9.00
2022-12-26T00:59:15.313Z,8.98
2022-12-26T01:01:42.374Z,8.95
2022-12-26T01:04:09.910Z,8.93
2022-12-26T01:06:36.716Z,8.94
2022-12-26T01:09:03.834Z,8.86
2022-12-26T01:11:42.579Z,8.86
2022-12-26T01:14:12.932Z,8.83
2022-12-26T01:16:40.805Z,8.81
2022-12-26T01:19:07.956Z,8.89
2022-12-26T01:21:34.834Z,9.00
2022-12-26T01:24:01.784Z,8.97
2022-12-26T01:26:28.568Z,9.00
2022-12-26T01:28:55.379Z,9.01
2022-12-26T01:31:23.234Z,9.04
2022-12-26T01:33:51.340Z,9.07
2022-12-26T01:36:19.012Z,9.11
2022-12-26T01:38:46.594Z,9.13
2022-12-26T01:41:17.218Z,9.10
2022-12-26T01:44:26.788Z,8.97
2022-12-26T01:46:53.644Z,9.00
2022-12-26T01:49:34.170Z,8.90
2022-12-26T01:52:09.681Z,8.88
2022-12-26T01:54:42.735Z,8.89
2022-12-26T01:57:24.180Z,8.92
2022-12-26T01:59:52.577Z,8.95
2022-12-26T02:02:22.341Z,8.99
2022-12-26T02:05:10.647Z,8.99
2022-12-26T02:07:40.591Z,9.06
2022-12-26T02:10:11.277Z,9.10
2022-12-26T02:12:39.356Z,9.12
2022-12-26T02:15:27.283Z,9.17
2022-12-26T02:17:54.137Z,9.17
2022-12-26T02:20:27.507Z,9.14
2022-12-26T02:23:08.514Z,9.20
2022-12-26T02:26:12.307Z,9.18
2022-12-26T02:29:39.203Z,9.03
2022-12-26T02:32:17.548Z,9.10
2022-12-26T02:35:03.105Z,8.97
2022-12-26T02:37:36.258Z,9.04
2022-12-26T02:40:33.008Z,8.89
2022-12-26T02:43:10.417Z,9.02
2022-12-26T02:46:20.706Z,8.98
2022-12-26T02:49:05.995Z,8.97
2022-12-26T02:52:10.185Z,8.97
2022-12-26T02:55:25.121Z,8.94
2022-12-26T02:58:25.593Z,9.00
2022-12-26T03:01:17.537Z,9.04
2022-12-26T03:04:22.576Z,9.08
2022-12-26T03:07:16.597Z,9.03
2022-12-26T03:10:05.098Z,9.04
2022-12-26T03:13:02.198Z,8.99
2022-12-26T03:15:51.587Z,9.07
2022-12-26T03:18:19.511Z,9.08
2022-12-26T03:21:07.739Z,9.05
2022-12-26T03:23:36.724Z,9.02
2022-12-26T03:26:29.813Z,9.04
2022-12-26T03:29:18.990Z,9.14
2022-12-26T03:31:46.256Z,9.09
2022-12-26T03:34:18.820Z,9.12
2022-12-26T03:37:09.547Z,9.08
2022-12-26T03:40:19.290Z,9.08
2022-12-26T03:43:22.532Z,9.07
2022-12-26T03:46:26.647Z,9.08
2022-12-26T03:49:41.186Z,9.19
2022-12-26T03:52:45.462Z,9.02
2022-12-26T03:55:41.380Z,9.25
2022-12-26T03:58:30.836Z,9.32
2022-12-26T04:01:18.367Z,9.35
2022-12-26T04:04:05.019Z,9.36
2022-12-26T04:07:00.161Z,9.27
2022-12-26T04:10:08.857Z,9.18
2022-12-26T04:12:57.203Z,9.20
2022-12-26T04:16:02.635Z,9.18
2022-12-26T04:19:31.424Z,9.13
2022-12-26T04:22:30.688Z,9.25
2022-12-26T04:25:50.252Z,9.27
2022-12-26T04:28:37.767Z,9.36
2022-12-26T04:31:49.365Z,9.25
2022-12-26T04:35:05.305Z,9.22
2022-12-26T04:37:53.087Z,9.30
2022-12-26T04:40:45.525Z,9.22
2022-12-26T04:43:48.926Z,9.18
2022-12-26T04:46:20.720Z,9.18
2022-12-26T04:49:09.204Z,9.17
2022-12-26T04:51:36.491Z,9.19
2022-12-26T04:54:03.807Z,9.20
2022-12-26T04:56:30.827Z,9.24
2022-12-26T04:58:57.653Z,9.22
2022-12-26T05:01:43.005Z,9.27
2022-12-26T05:04:33.253Z,9.23
2022-12-26T05:07:20.675Z,9.28
2022-12-26T05:09:51.944Z,9.33
2022-12-26T05:12:19.272Z,9.44
2022-12-26T05:14:46.289Z,9.48
2022-12-26T05:17:32.851Z,9.47
2022-12-26T05:20:18.099Z,9.47
2022-12-26T05:23:05.134Z,9.42
2022-12-26T05:25:53.575Z,9.43
2022-12-26T05:28:39.313Z,9.47
2022-12-26T05:31:06.961Z,9.47
2022-12-26T05:33:52.263Z,9.51
2022-12-26T05:36:21.869Z,9.53
2022-12-26T05:38:49.194Z,9.54
2022-12-26T05:41:17.137Z,9.51
2022-12-26T05:43:44.708Z,9.52
2022-12-26T05:46:11.481Z,9.52
2022-12-26T05:48:38.326Z,9.50
2022-12-26T05:51:05.680Z,9.53
2022-12-26T05:53:33.123Z,9.52
2022-12-26T05:56:08.264Z,9.41
2022-12-26T05:58:35.171Z,9.38
2022-12-26T06:01:08.526Z,9.26
2022-12-26T06:03:35.882Z,9.26
2022-12-26T06:06:02.926Z,9.19
2022-12-26T06:08:29.971Z,9.16
2022-12-26T06:10:56.754Z,9.12
2022-12-26T06:13:23.695Z,9.09
2022-12-26T06:15:50.516Z,9.08
2022-12-26T06:18:17.501Z,9.03
2022-12-26T06:20:44.996Z,9.04
2022-12-26T06:23:11.865Z,9.08
2022-12-26T06:25:38.710Z,9.08
2022-12-26T06:28:05.575Z,9.12
2022-12-26T06:30:32.385Z,9.19
2022-12-26T06:33:00.005Z,9.22
2022-12-26T06:35:26.997Z,9.15
2022-12-26T06:37:53.779Z,9.17
2022-12-26T06:40:20.637Z,9.18
2022-12-26T06:42:47.441Z,9.15
2022-12-26T06:45:14.406Z,9.17
2022-12-26T06:47:41.259Z,9.17
2022-12-26T06:50:08.374Z,9.13
2022-12-26T06:52:37.463Z,9.15
2022-12-26T06:55:04.976Z,9.15
2022-12-26T06:57:31.897Z,9.19
2022-12-26T06:59:58.692Z,9.19
2022-12-26T07:02:25.482Z,9.22
2022-12-26T07:04:52.321Z,9.24
2022-12-26T07:07:19.056Z,9.25
2022-12-26T07:09:45.912Z,9.26
2022-12-26T07:12:12.702Z,9.26
2022-12-26T07:14:39.516Z,9.27
2022-12-26T07:17:06.303Z,9.31
2022-12-26T07:19:33.167Z,9.33
2022-12-26T07:21:59.993Z,9.37
2022-12-26T07:24:26.731Z,9.41
2022-12-26T07:26:53.560Z,9.46
2022-12-26T07:29:22.004Z,9.49
2022-12-26T07:31:49.296Z,9.55
2022-12-26T07:34:16.341Z,9.60
2022-12-26T07:36:43.294Z,9.65
2022-12-26T07:39:12.395Z,9.71
2022-12-26T07:41:57.621Z,9.75
2022-12-26T07:44:26.094Z,9.77
2022-12-26T07:46:53.069Z,9.78
2022-12-26T07:49:19.911Z,9.77
2022-12-26T07:51:46.769Z,9.77
2022-12-26T07:54:14.687Z,9.74
2022-12-26T07:56:42.098Z,9.79
2022-12-26T07:59:15.520Z,9.75
2022-12-26T08:01:42.924Z,9.44
2022-12-26T08:04:11.122Z,9.70
2022-12-26T08:06:38.893Z,9.74
2022-12-26T08:09:06.149Z,9.78
2022-12-26T08:11:35.483Z,9.77
2022-12-26T08:14:02.885Z,9.81
2022-12-26T08:16:31.540Z,9.85
2022-12-26T08:18:58.412Z,9.86
2022-12-26T08:21:25.274Z,9.88
2022-12-26T08:23:52.149Z,9.85
2022-12-26T08:26:22.777Z,9.86
2022-12-26T08:28:51.295Z,9.83
2022-12-26T08:31:19.646Z,9.84
2022-12-26T08:33:46.554Z,9.87
2022-12-26T08:36:17.010Z,9.89
2022-12-26T08:38:45.492Z,9.97
2022-12-26T08:41:12.360Z,10.05
2022-12-26T08:44:25.253Z,9.97
2022-12-26T08:46:25.886Z,9.93
2022-12-26T08:48:52.835Z,9.88
2022-12-26T08:51:22.545Z,9.94
2022-12-26T08:53:50.518Z,9.98
2022-12-26T08:56:21.814Z,9.87
2022-12-26T08:58:49.797Z,9.82
2022-12-26T09:01:19.918Z,9.85
2022-12-26T09:03:47.433Z,9.82
2022-12-26T09:06:15.647Z,9.83
2022-12-26T09:08:43.274Z,9.84
2022-12-26T09:11:15.908Z,9.84
2022-12-26T09:13:43.584Z,9.94
2022-12-26T09:16:17.853Z,9.91
2022-12-26T09:18:46.221Z,9.98
2022-12-26T09:21:15.556Z,10.04
2022-12-26T09:23:43.431Z,10.15
2022-12-26T09:26:14.171Z,10.17
2022-12-26T09:28:41.440Z,10.25
2022-12-26T09:31:13.885Z,10.27
2022-12-26T09:33:40.909Z,10.30
2022-12-26T09:36:14.484Z,10.24
2022-12-26T09:38:46.093Z,10.29
2022-12-26T09:41:48.528Z,10.20
2022-12-26T09:44:27.657Z,10.17
2022-12-26T09:47:24.967Z,10.20
2022-12-26T09:50:01.005Z,10.37
2022-12-26T09:52:50.690Z,10.41
2022-12-26T09:55:36.139Z,10.38
2022-12-26T09:58:14.941Z,10.31
2022-12-26T10:00:51.842Z,10.27
2022-12-26T10:03:18.769Z,10.22
2022-12-26T10:06:07.229Z,10.14
2022-12-26T10:09:12.523Z,10.05
2022-12-26T10:12:24.479Z,9.94
2022-12-26T10:15:03.571Z,9.99
2022-12-26T10:17:36.825Z,10.06
2022-12-26T10:20:16.677Z,10.09
2022-12-26T10:23:03.509Z,10.09
2022-12-26T10:25:45.846Z,10.13
2022-12-26T10:28:46.192Z,10.01
2022-12-26T10:31:27.810Z,9.95
2022-12-26T10:33:58.577Z,9.92
2022-12-26T10:36:44.156Z,9.83
2022-12-26T10:39:41.529Z,9.82
2022-12-26T10:42:17.231Z,9.95
2022-12-26T10:44:44.412Z,10.05
2022-12-26T10:47:23.759Z,10.13
2022-12-26T10:49:50.607Z,10.25
2022-12-26T10:52:21.369Z,10.38
2022-12-26T10:55:29.683Z,10.40
2022-12-26T10:57:44.240Z,10.38
2022-12-26T11:00:37.705Z,10.07
2022-12-26T11:03:13.727Z,10.05
2022-12-26T11:06:08.175Z,10.19
2022-12-26T11:08:51.902Z,10.19
2022-12-26T11:11:23.765Z,10.32
2022-12-26T11:14:02.332Z,10.27
2022-12-26T11:16:40.033Z,10.29
2022-12-26T11:19:07.026Z,10.30
2022-12-26T11:21:34.444Z,10.33
2022-12-26T11:24:21.668Z,10.32
2022-12-26T11:26:48.840Z,10.31
2022-12-26T11:29:21.442Z,10.32
2022-12-26T11:31:59.443Z,10.39
2022-12-26T11:34:47.732Z,10.50
2022-12-26T11:37:37.119Z,10.31
2022-12-26T11:40:05.019Z,10.42
2022-12-26T11:42:32.122Z,10.48
2022-12-26T11:45:12.325Z,10.45
2022-12-26T11:47:46.249Z,10.40
2022-12-26T11:50:21.164Z,10.44
2022-12-26T11:52:56.577Z,10.45
2022-12-26T11:55:29.712Z,10.46
2022-12-26T11:58:21.811Z,10.40
2022-12-26T12:00:51.859Z,10.49
2022-12-26T12:03:48.645Z,10.34
2022-12-26T12:06:44.190Z,10.38
2022-12-26T12:09:42.117Z,10.35
2022-12-26T12:12:42.692Z,10.29
2022-12-26T12:15:31.465Z,10.28
2022-12-26T12:18:33.322Z,10.34
2022-12-26T12:21:36.644Z,10.38
2022-12-26T12:24:32.585Z,10.29
2022-12-26T12:27:13.511Z,10.45
2022-12-26T12:29:49.343Z,10.54
2022-12-26T12:32:29.248Z,10.56
2022-12-26T12:35:01.606Z,10.26
2022-12-26T12:37:53.394Z,10.20
2022-12-26T12:40:42.391Z,10.14
2022-12-26T12:43:23.090Z,10.08
2022-12-26T12:45:49.818Z,10.22
2022-12-26T12:48:45.808Z,9.98
2022-12-26T12:51:37.313Z,9.96
2022-12-26T12:54:39.446Z,9.81
2022-12-26T12:57:36.955Z,9.71
2022-12-26T13:00:24.135Z,9.73
2022-12-26T13:03:12.880Z,9.56
2022-12-26T13:06:01.060Z,9.59
2022-12-26T13:08:51.665Z,9.60
2022-12-26T13:11:38.231Z,9.59
2022-12-26T13:14:11.727Z,9.53
2022-12-26T13:16:43.741Z,9.60
2022-12-26T13:19:26.331Z,9.68
2022-12-26T13:21:57.744Z,9.78
2022-12-26T13:24:35.983Z,9.71
2022-12-26T13:27:24.217Z,9.66
2022-12-26T13:29:52.503Z,9.61
2022-12-26T13:32:33.379Z,9.47
2022-12-26T13:35:02.199Z,9.57
2022-12-26T13:37:36.331Z,9.60
2022-12-26T13:40:10.906Z,9.62
2022-12-26T13:43:04.339Z,9.63
2022-12-26T13:45:58.169Z,9.60
2022-12-26T13:48:30.436Z,9.74
2022-12-26T13:51:00.396Z,9.82
2022-12-26T13:53:37.208Z,9.80
2022-12-26T13:56:45.878Z,9.68
2022-12-26T13:59:30.604Z,9.59
2022-12-26T14:03:15.992Z,9.52
2022-12-26T14:05:57.982Z,9.64
2022-12-26T14:08:36.778Z,9.56
2022-12-26T14:11:28.312Z,9.61
2022-12-26T14:14:48.253Z,9.50
2022-12-26T14:17:57.898Z,9.39
2022-12-26T14:20:49.656Z,9.46
2022-12-26T14:23:28.402Z,9.54
2022-12-26T14:26:05.186Z,9.51
2022-12-26T14:29:08.045Z,9.53
2022-12-26T14:31:40.951Z,9.52
2022-12-26T14:34:49.854Z,9.38
2022-12-26T14:37:28.625Z,9.40
2022-12-26T14:40:06.137Z,9.44
2022-12-26T14:43:11.082Z,9.46
2022-12-26T14:45:38.448Z,9.31
2022-12-26T14:48:17.440Z,9.10
2022-12-26T14:50:47.279Z,9.07
2022-12-26T14:53:28.825Z,8.95
2022-12-26T14:56:19.256Z,8.93
2022-12-26T14:58:50.462Z,8.97
2022-12-26T15:01:18.097Z,8.97
2022-12-26T15:04:12.123Z,8.89
2022-12-26T15:07:04.363Z,8.73
2022-12-26T15:10:08.395Z,8.64
2022-12-26T15:13:09.111Z,8.67
2022-12-26T15:16:08.311Z,8.70
2022-12-26T15:18:59.448Z,8.70
2022-12-26T15:21:56.505Z,8.59
2022-12-26T15:25:17.662Z,8.58
2022-12-26T15:27:36.196Z,8.57
2022-12-26T15:30:39.802Z,8.50
2022-12-26T15:33:22.134Z,8.43
2022-12-26T15:36:13.518Z,8.41
2022-12-26T15:39:05.233Z,8.48
2022-12-26T15:41:43.962Z,8.58
2022-12-26T15:44:48.534Z,8.47
2022-12-26T15:47:43.167Z,8.42
2022-12-26T15:50:31.300Z,8.44
2022-12-26T15:53:21.055Z,8.44
2022-12-26T15:56:22.126Z,8.47
2022-12-26T15:58:51.922Z,8.49
2022-12-26T16:01:39.048Z,8.46
2022-12-26T16:04:28.839Z,8.52
2022-12-26T16:07:51.919Z,8.56
2022-12-26T16:10:32.417Z,8.67
2022-12-26T16:13:11.651Z,8.72
2022-12-26T16:15:48.910Z,8.69
2022-12-26T16:18:36.180Z,8.65
2022-12-26T16:21:25.680Z,8.75
2022-12-26T16:23:54.125Z,8.73
2022-12-26T16:26:34.017Z,8.67
2022-12-26T16:29:01.583Z,8.71
2022-12-26T16:31:31.419Z,8.71
2022-12-26T16:33:59.853Z,8.64
2022-12-26T16:36:35.749Z,8.61
2022-12-26T16:39:08.316Z,8.63
2022-12-26T16:41:45.678Z,8.55
2022-12-26T16:44:35.936Z,8.50
2022-12-26T16:47:06.503Z,8.50
2022-12-26T16:49:34.857Z,8.52
2022-12-26T16:52:01.900Z,8.51
2022-12-26T16:54:37.443Z,8.49
2022-12-26T16:57:19.676Z,8.48
2022-12-26T16:59:57.137Z,8.49
2022-12-26T17:02:35.312Z,8.56
2022-12-26T17:05:21.896Z,8.62
2022-12-26T17:07:50.862Z,8.72
2022-12-26T17:10:21.826Z,8.76
2022-12-26T17:12:49.179Z,8.80
2022-12-26T17:15:30.695Z,8.76
2022-12-26T17:18:21.783Z,8.87
2022-12-26T17:20:48.537Z,8.90
2022-12-26T17:23:34.640Z,8.89
2022-12-26T17:26:21.726Z,8.97
2022-12-26T17:28:48.657Z,9.15
2022-12-26T17:31:40.763Z,9.19
2022-12-26T17:34:31.434Z,9.27
2022-12-26T17:37:20.269Z,9.33
2022-12-26T17:40:02.750Z,9.42
2022-12-26T17:42:38.591Z,9.47
2022-12-26T17:45:05.825Z,9.53
2022-12-26T17:47:32.732Z,9.61
2022-12-26T17:49:59.641Z,9.67
2022-12-26T17:52:31.432Z,9.69
2022-12-26T17:54:59.798Z,9.71
2022-12-26T17:57:29.143Z,9.73
2022-12-26T17:59:57.317Z,9.76
2022-12-26T18:02:24.525Z,9.78
2022-12-26T18:04:51.687Z,9.78
2022-12-26T18:07:31.095Z,9.77
2022-12-26T18:10:02.025Z,9.79
2022-12-26T18:12:30.292Z,9.80
2022-12-26T18:15:01.715Z,9.81
2022-12-26T18:17:33.510Z,9.78
2022-12-26T18:20:05.957Z,9.83
2022-12-26T18:22:32.702Z,9.85
2022-12-26T18:24:59.853Z,9.90
2022-12-26T18:27:35.007Z,9.87
2022-12-26T18:30:02.109Z,9.90
2022-12-26T18:32:33.557Z,9.89
2022-12-26T18:35:00.862Z,9.86
2022-12-26T18:37:29.613Z,9.82
2022-12-26T18:39:56.749Z,9.81
2022-12-26T18:42:23.981Z,9.82
2022-12-26T18:44:50.736Z,9.81
2022-12-26T18:47:20.544Z,9.79
2022-12-26T18:49:47.841Z,9.81
2022-12-26T18:52:17.942Z,9.86
2022-12-26T18:54:45.211Z,9.86
2022-12-26T18:57:18.918Z,9.86
2022-12-26T18:59:48.691Z,9.88
2022-12-26T19:02:19.552Z,9.84
2022-12-26T19:04:48.613Z,9.87
2022-12-26T19:07:17.284Z,9.89
2022-12-26T19:09:46.985Z,9.91
2022-12-26T19:12:15.498Z,9.90
2022-12-26T19:14:44.181Z,9.83
2022-12-26T19:17:11.185Z,9.75
2022-12-26T19:19:37.954Z,9.72
2022-12-26T19:22:04.882Z,9.70
2022-12-26T19:24:31.724Z,9.68
2022-12-26T19:26:58.603Z,9.65
2022-12-26T19:29:25.373Z,9.60
2022-12-26T19:31:52.332Z,9.59
2022-12-26T19:34:19.220Z,9.55
2022-12-26T19:36:46.124Z,9.54
2022-12-26T19:39:12.943Z,9.52
2022-12-26T19:41:39.892Z,9.52
2022-12-26T19:44:06.752Z,9.52
2022-12-26T19:46:34.521Z,9.58
2022-12-26T19:49:03.645Z,9.60
2022-12-26T19:51:30.838Z,9.64
2022-12-26T19:53:57.886Z,9.64
2022-12-26T19:56:27.471Z,9.61
2022-12-26T19:58:56.770Z,9.64
2022-12-26T20:01:26.743Z,9.61
2022-12-26T20:03:58.751Z,9.59
2022-12-26T20:06:28.043Z,9.59
2022-12-26T20:09:01.136Z,9.56
2022-12-26T20:11:33.720Z,9.53
2022-12-26T20:14:01.999Z,9.51
2022-12-26T20:17:03.714Z,9.46
2022-12-26T20:19:17.177Z,9.43
2022-12-26T20:21:44.040Z,9.45
2022-12-26T20:24:11.489Z,9.45
2022-12-26T20:26:38.937Z,9.45
2022-12-26T20:29:05.763Z,9.43
2022-12-26T20:31:33.778Z,9.42
2022-12-26T20:34:01.001Z,9.41
2022-12-26T20:36:32.515Z,9.40
2022-12-26T20:39:01.481Z,9.43
2022-12-26T20:41:29.592Z,9.43
2022-12-26T20:43:57.011Z,9.37
2022-12-26T20:46:27.742Z,9.38
2022-12-26T20:48:55.210Z,9.34
2022-12-26T20:51:31.708Z,9.32
2022-12-26T20:54:03.928Z,9.32
2022-12-26T20:56:30.795Z,9.36
2022-12-26T20:58:59.622Z,9.40
2022-12-26T21:01:27.877Z,9.43
2022-12-26T21:03:55.994Z,9.48
2022-12-26T21:06:30.183Z,9.52
2022-12-26T21:08:57.863Z,9.58
2022-12-26T21:11:37.989Z,9.58
2022-12-26T21:14:07.944Z,9.71
2022-12-26T21:16:44.516Z,9.76
2022-12-26T21:19:15.324Z,9.82
2022-12-26T21:21:45.323Z,9.74
2022-12-26T21:24:15.861Z,9.78
2022-12-26T21:26:43.640Z,9.77
2022-12-26T21:29:14.146Z,9.76
2022-12-26T21:31:41.104Z,9.74
2022-12-26T21:34:08.964Z,9.76
2022-12-26T21:36:36.113Z,9.76
2022-12-26T21:39:08.086Z,9.74
2022-12-26T21:41:35.416Z,9.78
2022-12-26T21:44:02.338Z,9.86
2022-12-26T21:46:29.200Z,9.93
2022-12-26T21:48:56.031Z,10.02
2022-12-26T21:51:27.103Z,10.10
2022-12-26T21:54:13.818Z,10.21
2022-12-26T21:56:40.570Z,10.30
2022-12-26T21:59:27.187Z,10.39
2022-12-26T22:01:54.147Z,10.45
2022-12-26T22:04:20.915Z,10.52
2022-12-26T22:06:49.586Z,10.58
2022-12-26T22:09:17.389Z,10.64
2022-12-26T22:12:04.238Z,10.62
2022-12-26T22:14:31.307Z,10.71
2022-12-26T22:16:58.470Z,10.73
2022-12-26T22:19:26.268Z,10.74
2022-12-26T22:21:54.561Z,10.75
2022-12-26T22:24:21.949Z,10.77
2022-12-26T22:26:49.221Z,10.77
2022-12-26T22:29:16.135Z,10.75
2022-12-26T22:31:43.066Z,10.77
2022-12-26T22:34:14.920Z,10.73
2022-12-26T22:36:42.873Z,10.75
2022-12-26T22:39:13.791Z,10.73
2022-12-26T22:41:40.979Z,10.76
2022-12-26T22:44:12.331Z,10.75
2022-12-26T22:46:39.320Z,10.75
2022-12-26T22:49:06.191Z,10.75
2022-12-26T22:51:33.235Z,10.75
2022-12-26T22:54:01.806Z,10.76
2022-12-26T22:56:29.663Z,10.76
2022-12-26T22:59:00.567Z,10.76
2022-12-26T23:01:27.818Z,10.77
2022-12-26T23:03:54.937Z,10.78
2022-12-26T23:06:27.140Z,10.71
2022-12-26T23:08:57.010Z,10.72
2022-12-26T23:11:30.330Z,10.75
2022-12-26T23:14:01.362Z,10.71
2022-12-26T23:16:52.548Z,10.61
2022-12-26T23:19:55.483Z,10.70
2022-12-26T23:22:22.466Z,10.69
2022-12-26T23:24:49.270Z,10.67
2022-12-26T23:27:34.731Z,10.64
2022-12-26T23:30:19.665Z,10.59
2022-12-26T23:32:52.568Z,10.54
2022-12-26T23:35:21.641Z,10.51
2022-12-26T23:37:48.551Z,10.51
2022-12-26T23:40:17.475Z,10.50
2022-12-26T23:42:44.543Z,10.53
2022-12-26T23:45:13.427Z,10.48
2022-12-26T23:47:42.418Z,10.43
2022-12-26T23:50:11.670Z,10.47
2022-12-26T23:52:38.841Z,10.47
2022-12-26T23:55:06.702Z,10.48
2022-12-26T23:57:33.799Z,10.47
